sensor_id;sensor_type;location;lat;lon;timestamp;temperature;humidity
4308;DHT22;2167;53.448;9.984;2024-02-21T00:01:22;9.60;3.50
4308;DHT22;2167;53.448;9.984;2024-02-21T00:03:48;9.60;3.30
4308;DHT22;2167;53.448;9.984;2024-02-21T00:06:13;9.50;3.70
4308;DHT22;2167;53.448;9.984;2024-02-21T00:08:39;9.50;4.00
4308;DHT22;2167;53.448;9.984;2024-02-21T00:11:04;9.50;4.50
4308;DHT22;2167;53.448;9.984;2024-02-21T00:13:30;9.50;5.00
4308;DHT22;2167;53.448;9.984;2024-02-21T00:15:55;9.40;5.30
4308;DHT22;2167;53.448;9.984;2024-02-21T00:18:21;9.40;6.10
4308;DHT22;2167;53.448;9.984;2024-02-21T00:20:46;9.40;6.50
4308;DHT22;2167;53.448;9.984;2024-02-21T00:23:12;9.30;6.90
4308;DHT22;2167;53.448;9.984;2024-02-21T00:25:39;9.30;7.50
4308;DHT22;2167;53.448;9.984;2024-02-21T00:28:05;9.30;7.70
4308;DHT22;2167;53.448;9.984;2024-02-21T00:30:31;9.20;7.80
4308;DHT22;2167;53.448;9.984;2024-02-21T00:32:56;9.20;8.00
4308;DHT22;2167;53.448;9.984;2024-02-21T00:35:22;9.20;8.00
4308;DHT22;2167;53.448;9.984;2024-02-21T00:37:48;9.20;8.30
4308;DHT22;2167;53.448;9.984;2024-02-21T00:40:13;9.20;8.50
4308;DHT22;2167;53.448;9.984;2024-02-21T00:42:45;9.20;8.50
4308;DHT22;2167;53.448;9.984;2024-02-21T00:45:11;9.20;8.50
4308;DHT22;2167;53.448;9.984;2024-02-21T00:47:36;9.20;8.30
4308;DHT22;2167;53.448;9.984;2024-02-21T00:50:02;9.20;8.30
4308;DHT22;2167;53.448;9.984;2024-02-21T00:52:28;9.30;8.40
4308;DHT22;2167;53.448;9.984;2024-02-21T00:54:53;9.20;8.30
4308;DHT22;2167;53.448;9.984;2024-02-21T00:57:20;9.30;8.40
4308;DHT22;2167;53.448;9.984;2024-02-21T00:59:46;9.30;8.20
4308;DHT22;2167;53.448;9.984;2024-02-21T01:02:11;9.30;8.10
4308;DHT22;2167;53.448;9.984;2024-02-21T01:04:37;9.20;8.00
4308;DHT22;2167;53.448;9.984;2024-02-21T01:07:02;9.20;8.40
4308;DHT22;2167;53.448;9.984;2024-02-21T01:09:28;9.30;8.50
4308;DHT22;2167;53.448;9.984;2024-02-21T01:11:53;9.30;8.30
4308;DHT22;2167;53.448;9.984;2024-02-21T01:14:19;9.20;8.00
4308;DHT22;2167;53.448;9.984;2024-02-21T01:16:45;9.30;8.30
4308;DHT22;2167;53.448;9.984;2024-02-21T01:19:10;9.30;8.10
4308;DHT22;2167;53.448;9.984;2024-02-21T01:21:39;9.30;8.30
4308;DHT22;2167;53.448;9.984;2024-02-21T01:24:04;9.30;8.40
4308;DHT22;2167;53.448;9.984;2024-02-21T01:26:30;9.30;8.50
4308;DHT22;2167;53.448;9.984;2024-02-21T01:28:55;9.30;9.00
4308;DHT22;2167;53.448;9.984;2024-02-21T01:31:21;9.30;9.10
4308;DHT22;2167;53.448;9.984;2024-02-21T01:33:46;9.30;9.30
4308;DHT22;2167;53.448;9.984;2024-02-21T01:36:12;9.30;9.40
4308;DHT22;2167;53.448;9.984;2024-02-21T01:38:37;9.30;9.50
4308;DHT22;2167;53.448;9.984;2024-02-21T01:41:03;9.30;9.50
4308;DHT22;2167;53.448;9.984;2024-02-21T01:43:29;9.30;9.50
4308;DHT22;2167;53.448;9.984;2024-02-21T01:45:58;9.40;9.50
4308;DHT22;2167;53.448;9.984;2024-02-21T01:48:24;9.30;9.70
4308;DHT22;2167;53.448;9.984;2024-02-21T01:50:51;9.30;9.90
4308;DHT22;2167;53.448;9.984;2024-02-21T01:53:19;9.30;10.20
4308;DHT22;2167;53.448;9.984;2024-02-21T01:55:45;9.30;10.60
4308;DHT22;2167;53.448;9.984;2024-02-21T01:58:15;9.30;10.70
4308;DHT22;2167;53.448;9.984;2024-02-21T02:00:42;9.20;10.90
4308;DHT22;2167;53.448;9.984;2024-02-21T02:03:10;9.20;11.40
4308;DHT22;2167;53.448;9.984;2024-02-21T02:05:43;9.20;11.40
4308;DHT22;2167;53.448;9.984;2024-02-21T02:08:08;9.20;11.40
4308;DHT22;2167;53.448;9.984;2024-02-21T02:10:34;9.30;11.60
4308;DHT22;2167;53.448;9.984;2024-02-21T02:13:00;9.20;11.60
4308;DHT22;2167;53.448;9.984;2024-02-21T02:15:26;9.20;11.60
4308;DHT22;2167;53.448;9.984;2024-02-21T02:17:51;9.20;11.80
4308;DHT22;2167;53.448;9.984;2024-02-21T02:20:17;9.20;11.80
4308;DHT22;2167;53.448;9.984;2024-02-21T02:22:43;9.20;11.90
4308;DHT22;2167;53.448;9.984;2024-02-21T02:25:09;9.20;11.80
4308;DHT22;2167;53.448;9.984;2024-02-21T02:27:42;9.20;11.70
4308;DHT22;2167;53.448;9.984;2024-02-21T02:30:10;9.10;11.70
4308;DHT22;2167;53.448;9.984;2024-02-21T02:32:35;9.10;11.80
4308;DHT22;2167;53.448;9.984;2024-02-21T02:35:01;9.10;11.90
4308;DHT22;2167;53.448;9.984;2024-02-21T02:37:26;9.10;12.00
4308;DHT22;2167;53.448;9.984;2024-02-21T02:39:52;9.10;11.90
4308;DHT22;2167;53.448;9.984;2024-02-21T02:42:18;9.10;11.80
4308;DHT22;2167;53.448;9.984;2024-02-21T02:44:43;9.10;11.60
4308;DHT22;2167;53.448;9.984;2024-02-21T02:47:09;9.10;11.70
4308;DHT22;2167;53.448;9.984;2024-02-21T02:49:34;9.00;11.40
4308;DHT22;2167;53.448;9.984;2024-02-21T02:52:00;9.10;11.60
4308;DHT22;2167;53.448;9.984;2024-02-21T02:54:25;9.10;11.60
4308;DHT22;2167;53.448;9.984;2024-02-21T02:56:51;9.00;11.40
4308;DHT22;2167;53.448;9.984;2024-02-21T02:59:17;9.00;11.50
4308;DHT22;2167;53.448;9.984;2024-02-21T03:01:42;9.00;11.40
4308;DHT22;2167;53.448;9.984;2024-02-21T03:04:08;9.00;11.40
4308;DHT22;2167;53.448;9.984;2024-02-21T03:06:33;8.90;11.30
4308;DHT22;2167;53.448;9.984;2024-02-21T03:08:59;9.00;11.20
4308;DHT22;2167;53.448;9.984;2024-02-21T03:11:25;9.00;11.00
4308;DHT22;2167;53.448;9.984;2024-02-21T03:13:55;9.00;10.90
4308;DHT22;2167;53.448;9.984;2024-02-21T03:16:21;9.00;10.60
4308;DHT22;2167;53.448;9.984;2024-02-21T03:18:47;9.00;10.50
4308;DHT22;2167;53.448;9.984;2024-02-21T03:21:13;9.00;10.50
4308;DHT22;2167;53.448;9.984;2024-02-21T03:23:38;9.10;10.50
4308;DHT22;2167;53.448;9.984;2024-02-21T03:26:04;9.10;10.10
4308;DHT22;2167;53.448;9.984;2024-02-21T03:28:29;9.10;9.90
4308;DHT22;2167;53.448;9.984;2024-02-21T03:30:55;9.10;9.80
4308;DHT22;2167;53.448;9.984;2024-02-21T03:33:21;9.20;9.60
4308;DHT22;2167;53.448;9.984;2024-02-21T03:35:48;9.20;9.20
4308;DHT22;2167;53.448;9.984;2024-02-21T03:38:13;9.20;8.90
4308;DHT22;2167;53.448;9.984;2024-02-21T03:40:39;9.30;9.40
4308;DHT22;2167;53.448;9.984;2024-02-21T03:43:04;9.30;8.50
4308;DHT22;2167;53.448;9.984;2024-02-21T03:45:30;9.30;8.10
4308;DHT22;2167;53.448;9.984;2024-02-21T03:47:55;9.30;7.90
4308;DHT22;2167;53.448;9.984;2024-02-21T03:50:21;9.30;8.00
4308;DHT22;2167;53.448;9.984;2024-02-21T03:52:46;9.30;7.80
4308;DHT22;2167;53.448;9.984;2024-02-21T03:55:12;9.40;7.50
4308;DHT22;2167;53.448;9.984;2024-02-21T03:57:38;9.40;7.30
4308;DHT22;2167;53.448;9.984;2024-02-21T04:00:04;9.40;7.20
4308;DHT22;2167;53.448;9.984;2024-02-21T04:02:31;9.40;7.30
4308;DHT22;2167;53.448;9.984;2024-02-21T04:04:56;9.40;7.80
4308;DHT22;2167;53.448;9.984;2024-02-21T04:07:22;9.40;7.90
4308;DHT22;2167;53.448;9.984;2024-02-21T04:09:47;9.40;7.80
4308;DHT22;2167;53.448;9.984;2024-02-21T04:12:13;9.40;8.30
4308;DHT22;2167;53.448;9.984;2024-02-21T04:14:38;9.40;8.70
4308;DHT22;2167;53.448;9.984;2024-02-21T04:17:05;9.40;9.10
4308;DHT22;2167;53.448;9.984;2024-02-21T04:19:31;9.40;9.50
4308;DHT22;2167;53.448;9.984;2024-02-21T04:21:57;9.30;9.80
4308;DHT22;2167;53.448;9.984;2024-02-21T04:24:22;9.30;10.20
4308;DHT22;2167;53.448;9.984;2024-02-21T04:26:48;9.30;10.40
4308;DHT22;2167;53.448;9.984;2024-02-21T04:29:13;9.30;10.30
4308;DHT22;2167;53.448;9.984;2024-02-21T04:31:39;9.30;10.40
4308;DHT22;2167;53.448;9.984;2024-02-21T04:34:06;9.30;10.80
4308;DHT22;2167;53.448;9.984;2024-02-21T04:36:32;9.20;10.80
4308;DHT22;2167;53.448;9.984;2024-02-21T04:38:58;9.20;10.90
4308;DHT22;2167;53.448;9.984;2024-02-21T04:41:24;9.20;11.20
4308;DHT22;2167;53.448;9.984;2024-02-21T04:43:49;9.10;11.50
4308;DHT22;2167;53.448;9.984;2024-02-21T04:46:15;9.20;11.50
4308;DHT22;2167;53.448;9.984;2024-02-21T04:48:43;9.20;11.80
4308;DHT22;2167;53.448;9.984;2024-02-21T04:51:09;9.10;12.00
4308;DHT22;2167;53.448;9.984;2024-02-21T04:53:34;9.10;12.10
4308;DHT22;2167;53.448;9.984;2024-02-21T04:56:00;9.00;12.20
4308;DHT22;2167;53.448;9.984;2024-02-21T04:58:26;9.00;12.20
4308;DHT22;2167;53.448;9.984;2024-02-21T05:00:54;9.00;12.40
4308;DHT22;2167;53.448;9.984;2024-02-21T05:03:20;9.10;12.40
4308;DHT22;2167;53.448;9.984;2024-02-21T05:05:46;9.10;12.40
4308;DHT22;2167;53.448;9.984;2024-02-21T05:08:11;9.10;12.40
4308;DHT22;2167;53.448;9.984;2024-02-21T05:10:37;9.10;12.50
4308;DHT22;2167;53.448;9.984;2024-02-21T05:13:02;9.10;12.30
4308;DHT22;2167;53.448;9.984;2024-02-21T05:15:28;9.10;12.40
4308;DHT22;2167;53.448;9.984;2024-02-21T05:17:54;9.10;12.60
4308;DHT22;2167;53.448;9.984;2024-02-21T05:20:19;9.10;12.70
4308;DHT22;2167;53.448;9.984;2024-02-21T05:22:45;9.10;12.80
4308;DHT22;2167;53.448;9.984;2024-02-21T05:25:10;9.10;12.90
4308;DHT22;2167;53.448;9.984;2024-02-21T05:27:36;9.00;12.90
4308;DHT22;2167;53.448;9.984;2024-02-21T05:30:04;9.00;13.00
4308;DHT22;2167;53.448;9.984;2024-02-21T05:32:31;9.10;13.10
4308;DHT22;2167;53.448;9.984;2024-02-21T05:34:57;9.10;13.10
4308;DHT22;2167;53.448;9.984;2024-02-21T05:37:23;9.20;13.20
4308;DHT22;2167;53.448;9.984;2024-02-21T05:39:49;9.10;12.90
4308;DHT22;2167;53.448;9.984;2024-02-21T05:42:14;9.20;12.90
4308;DHT22;2167;53.448;9.984;2024-02-21T05:44:40;9.10;12.90
4308;DHT22;2167;53.448;9.984;2024-02-21T05:47:06;9.20;12.90
4308;DHT22;2167;53.448;9.984;2024-02-21T05:49:35;9.10;12.80
4308;DHT22;2167;53.448;9.984;2024-02-21T05:52:01;9.10;12.80
4308;DHT22;2167;53.448;9.984;2024-02-21T05:54:26;9.10;12.80
4308;DHT22;2167;53.448;9.984;2024-02-21T05:56:52;9.10;12.70
4308;DHT22;2167;53.448;9.984;2024-02-21T05:59:18;9.10;12.90
4308;DHT22;2167;53.448;9.984;2024-02-21T06:01:44;9.10;13.10
4308;DHT22;2167;53.448;9.984;2024-02-21T06:04:10;9.10;13.00
4308;DHT22;2167;53.448;9.984;2024-02-21T06:06:35;9.10;13.00
4308;DHT22;2167;53.448;9.984;2024-02-21T06:09:01;9.10;12.90
4308;DHT22;2167;53.448;9.984;2024-02-21T06:11:28;9.10;12.80
4308;DHT22;2167;53.448;9.984;2024-02-21T06:13:53;9.10;12.90
4308;DHT22;2167;53.448;9.984;2024-02-21T06:16:19;9.10;13.00
4308;DHT22;2167;53.448;9.984;2024-02-21T06:18:44;9.10;13.00
4308;DHT22;2167;53.448;9.984;2024-02-21T06:21:10;9.10;13.10
4308;DHT22;2167;53.448;9.984;2024-02-21T06:23:37;9.20;12.90
4308;DHT22;2167;53.448;9.984;2024-02-21T06:26:02;9.20;12.90
4308;DHT22;2167;53.448;9.984;2024-02-21T06:28:28;9.10;12.90
4308;DHT22;2167;53.448;9.984;2024-02-21T06:30:53;9.20;12.90
4308;DHT22;2167;53.448;9.984;2024-02-21T06:33:19;9.10;12.90
4308;DHT22;2167;53.448;9.984;2024-02-21T06:35:50;9.20;13.00
4308;DHT22;2167;53.448;9.984;2024-02-21T06:38:18;9.10;12.90
4308;DHT22;2167;53.448;9.984;2024-02-21T06:40:44;9.10;13.10
4308;DHT22;2167;53.448;9.984;2024-02-21T06:43:16;9.10;13.10
4308;DHT22;2167;53.448;9.984;2024-02-21T06:45:42;9.20;13.10
4308;DHT22;2167;53.448;9.984;2024-02-21T06:48:07;9.20;13.10
4308;DHT22;2167;53.448;9.984;2024-02-21T06:50:33;9.10;13.20
4308;DHT22;2167;53.448;9.984;2024-02-21T06:52:58;9.20;13.20
4308;DHT22;2167;53.448;9.984;2024-02-21T06:55:24;9.10;13.20
4308;DHT22;2167;53.448;9.984;2024-02-21T06:57:49;9.20;13.20
4308;DHT22;2167;53.448;9.984;2024-02-21T07:00:15;9.20;13.30
4308;DHT22;2167;53.448;9.984;2024-02-21T07:02:41;9.20;13.10
4308;DHT22;2167;53.448;9.984;2024-02-21T07:05:07;9.30;13.20
4308;DHT22;2167;53.448;9.984;2024-02-21T07:07:32;9.30;13.00
4308;DHT22;2167;53.448;9.984;2024-02-21T07:10:00;9.30;13.00
4308;DHT22;2167;53.448;9.984;2024-02-21T07:12:26;9.30;13.10
4308;DHT22;2167;53.448;9.984;2024-02-21T07:14:51;9.30;13.00
4308;DHT22;2167;53.448;9.984;2024-02-21T07:17:17;9.30;13.00
4308;DHT22;2167;53.448;9.984;2024-02-21T07:19:42;9.30;13.00
4308;DHT22;2167;53.448;9.984;2024-02-21T07:22:08;9.30;12.90
4308;DHT22;2167;53.448;9.984;2024-02-21T07:24:34;9.30;12.90
4308;DHT22;2167;53.448;9.984;2024-02-21T07:26:59;9.30;12.90
4308;DHT22;2167;53.448;9.984;2024-02-21T07:29:30;9.30;12.90
4308;DHT22;2167;53.448;9.984;2024-02-21T07:31:55;9.30;12.90
4308;DHT22;2167;53.448;9.984;2024-02-21T07:34:21;9.30;13.00
4308;DHT22;2167;53.448;9.984;2024-02-21T07:36:46;9.30;12.90
4308;DHT22;2167;53.448;9.984;2024-02-21T07:39:12;9.30;13.10
4308;DHT22;2167;53.448;9.984;2024-02-21T07:41:37;9.30;13.70
4308;DHT22;2167;53.448;9.984;2024-02-21T07:44:04;9.30;13.10
4308;DHT22;2167;53.448;9.984;2024-02-21T07:46:30;9.30;13.10
4308;DHT22;2167;53.448;9.984;2024-02-21T07:48:55;9.30;13.00
4308;DHT22;2167;53.448;9.984;2024-02-21T07:51:21;9.30;12.90
4308;DHT22;2167;53.448;9.984;2024-02-21T07:53:48;9.30;12.90
4308;DHT22;2167;53.448;9.984;2024-02-21T07:56:15;9.30;12.80
4308;DHT22;2167;53.448;9.984;2024-02-21T07:58:43;9.30;12.90
4308;DHT22;2167;53.448;9.984;2024-02-21T08:01:09;9.30;13.20
4308;DHT22;2167;53.448;9.984;2024-02-21T08:03:35;9.30;13.10
4308;DHT22;2167;53.448;9.984;2024-02-21T08:06:02;9.30;13.20
4308;DHT22;2167;53.448;9.984;2024-02-21T08:08:27;9.30;13.20
4308;DHT22;2167;53.448;9.984;2024-02-21T08:10:53;9.30;13.30
4308;DHT22;2167;53.448;9.984;2024-02-21T10:40:39;8.70;14.90
4308;DHT22;2167;53.448;9.984;2024-02-21T10:43:05;8.80;15.60
4308;DHT22;2167;53.448;9.984;2024-02-21T10:45:36;9.00;15.70
4308;DHT22;2167;53.448;9.984;2024-02-21T10:48:14;9.10;15.70
4308;DHT22;2167;53.448;9.984;2024-02-21T10:50:57;9.10;15.40
4308;DHT22;2167;53.448;9.984;2024-02-21T10:56:29;9.20;14.60
4308;DHT22;2167;53.448;9.984;2024-02-21T10:59:04;9.20;14.30
4308;DHT22;2167;53.448;9.984;2024-02-21T11:01:30;9.30;13.90
4308;DHT22;2167;53.448;9.984;2024-02-21T11:04:08;9.40;13.30
4308;DHT22;2167;53.448;9.984;2024-02-21T11:06:36;9.60;12.40
4308;DHT22;2167;53.448;9.984;2024-02-21T11:09:03;9.60;11.50
4308;DHT22;2167;53.448;9.984;2024-02-21T11:11:30;9.70;11.10
4308;DHT22;2167;53.448;9.984;2024-02-21T11:14:26;9.70;10.60
4308;DHT22;2167;53.448;9.984;2024-02-21T11:16:51;9.80;9.90
4308;DHT22;2167;53.448;9.984;2024-02-21T11:19:22;9.70;9.40
4308;DHT22;2167;53.448;9.984;2024-02-21T11:21:48;9.70;8.90
4308;DHT22;2167;53.448;9.984;2024-02-21T11:24:25;9.70;8.40
4308;DHT22;2167;53.448;9.984;2024-02-21T11:26:50;9.70;8.30
4308;DHT22;2167;53.448;9.984;2024-02-21T11:29:23;9.70;8.30
4308;DHT22;2167;53.448;9.984;2024-02-21T11:31:50;9.80;8.00
4308;DHT22;2167;53.448;9.984;2024-02-21T11:34:18;9.80;8.00
4308;DHT22;2167;53.448;9.984;2024-02-21T11:36:49;9.80;8.00
4308;DHT22;2167;53.448;9.984;2024-02-21T11:39:25;9.70;7.70
4308;DHT22;2167;53.448;9.984;2024-02-21T11:42:05;9.70;7.40
4308;DHT22;2167;53.448;9.984;2024-02-21T11:44:31;9.70;7.40
4308;DHT22;2167;53.448;9.984;2024-02-21T11:46:57;9.70;7.50
4308;DHT22;2167;53.448;9.984;2024-02-21T11:49:28;9.60;6.70
4308;DHT22;2167;53.448;9.984;2024-02-21T11:52:01;9.60;7.20
4308;DHT22;2167;53.448;9.984;2024-02-21T11:54:32;9.60;7.60
4308;DHT22;2167;53.448;9.984;2024-02-21T11:56:58;9.60;7.70
4308;DHT22;2167;53.448;9.984;2024-02-21T11:59:24;9.70;7.80
4308;DHT22;2167;53.448;9.984;2024-02-21T12:01:50;9.70;7.80
4308;DHT22;2167;53.448;9.984;2024-02-21T12:04:17;9.70;7.50
4308;DHT22;2167;53.448;9.984;2024-02-21T12:06:45;9.60;7.20
4308;DHT22;2167;53.448;9.984;2024-02-21T12:09:16;9.60;7.50
4308;DHT22;2167;53.448;9.984;2024-02-21T12:11:43;9.50;7.70
4308;DHT22;2167;53.448;9.984;2024-02-21T12:14:09;9.50;8.50
4308;DHT22;2167;53.448;9.984;2024-02-21T12:16:35;9.40;8.60
4308;DHT22;2167;53.448;9.984;2024-02-21T12:19:04;9.40;9.10
4308;DHT22;2167;53.448;9.984;2024-02-21T12:21:31;9.50;8.90
4308;DHT22;2167;53.448;9.984;2024-02-21T12:23:58;9.50;8.30
4308;DHT22;2167;53.448;9.984;2024-02-21T12:26:25;9.50;8.20
4308;DHT22;2167;53.448;9.984;2024-02-21T12:28:53;9.60;8.00
4308;DHT22;2167;53.448;9.984;2024-02-21T12:31:20;9.50;8.40
4308;DHT22;2167;53.448;9.984;2024-02-21T12:33:46;9.60;8.30
4308;DHT22;2167;53.448;9.984;2024-02-21T12:36:12;9.60;8.30
4308;DHT22;2167;53.448;9.984;2024-02-21T12:38:37;9.60;8.40
4308;DHT22;2167;53.448;9.984;2024-02-21T12:41:03;9.60;7.70
4308;DHT22;2167;53.448;9.984;2024-02-21T12:43:29;9.60;7.30
4308;DHT22;2167;53.448;9.984;2024-02-21T12:45:54;9.60;7.10
4308;DHT22;2167;53.448;9.984;2024-02-21T12:48:20;9.60;7.00
4308;DHT22;2167;53.448;9.984;2024-02-21T12:50:49;9.60;7.50
4308;DHT22;2167;53.448;9.984;2024-02-21T12:53:19;9.70;7.90
4308;DHT22;2167;53.448;9.984;2024-02-21T12:55:49;9.80;7.70
4308;DHT22;2167;53.448;9.984;2024-02-21T12:58:15;9.80;7.60
4308;DHT22;2167;53.448;9.984;2024-02-21T13:00:41;9.90;7.40
4308;DHT22;2167;53.448;9.984;2024-02-21T13:03:07;9.90;7.00
4308;DHT22;2167;53.448;9.984;2024-02-21T13:05:33;10.00;5.90
4308;DHT22;2167;53.448;9.984;2024-02-21T13:07:59;10.10;5.90
4308;DHT22;2167;53.448;9.984;2024-02-21T13:10:25;10.10;5.40
4308;DHT22;2167;53.448;9.984;2024-02-21T13:12:50;10.10;5.20
4308;DHT22;2167;53.448;9.984;2024-02-21T13:15:16;10.20;4.70
4308;DHT22;2167;53.448;9.984;2024-02-21T13:17:43;10.30;4.70
4308;DHT22;2167;53.448;9.984;2024-02-21T13:20:10;10.30;5.20
4308;DHT22;2167;53.448;9.984;2024-02-21T13:22:36;10.40;3.80
4308;DHT22;2167;53.448;9.984;2024-02-21T13:25:02;10.40;3.70
4308;DHT22;2167;53.448;9.984;2024-02-21T13:27:27;10.40;1.60
4308;DHT22;2167;53.448;9.984;2024-02-21T13:29:53;10.40;1.00
4308;DHT22;2167;53.448;9.984;2024-02-21T13:32:19;10.40;1.00
4308;DHT22;2167;53.448;9.984;2024-02-21T13:34:44;10.40;1.00
4308;DHT22;2167;53.448;9.984;2024-02-21T13:37:10;10.40;1.00
4308;DHT22;2167;53.448;9.984;2024-02-21T13:39:36;10.40;1.00
4308;DHT22;2167;53.448;9.984;2024-02-21T13:42:02;10.40;1.00
4308;DHT22;2167;53.448;9.984;2024-02-21T13:44:31;10.40;1.00
4308;DHT22;2167;53.448;9.984;2024-02-21T13:46:56;10.40;1.00
4308;DHT22;2167;53.448;9.984;2024-02-21T13:49:22;10.40;1.00
4308;DHT22;2167;53.448;9.984;2024-02-21T13:51:48;10.40;1.00
4308;DHT22;2167;53.448;9.984;2024-02-21T13:54:13;10.30;1.00
4308;DHT22;2167;53.448;9.984;2024-02-21T13:56:42;10.40;1.00
4308;DHT22;2167;53.448;9.984;2024-02-21T13:59:08;10.50;1.00
4308;DHT22;2167;53.448;9.984;2024-02-21T14:01:34;10.60;1.00
4308;DHT22;2167;53.448;9.984;2024-02-21T14:04:01;10.60;1.00
4308;DHT22;2167;53.448;9.984;2024-02-21T14:06:27;10.70;1.00
4308;DHT22;2167;53.448;9.984;2024-02-21T14:08:52;10.70;1.00
4308;DHT22;2167;53.448;9.984;2024-02-21T14:11:18;10.70;1.00
4308;DHT22;2167;53.448;9.984;2024-02-21T14:13:43;10.70;1.00
4308;DHT22;2167;53.448;9.984;2024-02-21T14:16:10;10.70;1.00
4308;DHT22;2167;53.448;9.984;2024-02-21T14:18:40;10.70;1.00
4308;DHT22;2167;53.448;9.984;2024-02-21T14:21:08;10.60;1.00
4308;DHT22;2167;53.448;9.984;2024-02-21T14:23:36;10.60;1.00
4308;DHT22;2167;53.448;9.984;2024-02-21T14:26:03;10.60;1.00
4308;DHT22;2167;53.448;9.984;2024-02-21T14:28:28;10.60;1.00
4308;DHT22;2167;53.448;9.984;2024-02-21T14:30:54;10.70;1.00
4308;DHT22;2167;53.448;9.984;2024-02-21T14:33:25;10.70;1.00
4308;DHT22;2167;53.448;9.984;2024-02-21T14:35:52;10.70;1.00
4308;DHT22;2167;53.448;9.984;2024-02-21T14:38:18;10.70;1.00
4308;DHT22;2167;53.448;9.984;2024-02-21T14:40:44;10.70;1.00
4308;DHT22;2167;53.448;9.984;2024-02-21T14:43:10;10.70;1.00
4308;DHT22;2167;53.448;9.984;2024-02-21T14:45:35;10.70;1.00
4308;DHT22;2167;53.448;9.984;2024-02-21T14:48:01;10.70;1.00
4308;DHT22;2167;53.448;9.984;2024-02-21T14:50:26;10.70;1.00
4308;DHT22;2167;53.448;9.984;2024-02-21T14:52:52;10.70;1.00
4308;DHT22;2167;53.448;9.984;2024-02-21T14:55:17;10.70;1.00
4308;DHT22;2167;53.448;9.984;2024-02-21T14:57:43;10.60;1.00
4308;DHT22;2167;53.448;9.984;2024-02-21T15:00:10;10.60;1.00
4308;DHT22;2167;53.448;9.984;2024-02-21T15:02:37;10.60;1.00
4308;DHT22;2167;53.448;9.984;2024-02-21T15:05:02;10.50;1.00
4308;DHT22;2167;53.448;9.984;2024-02-21T15:07:32;10.60;1.00
4308;DHT22;2167;53.448;9.984;2024-02-21T15:09:59;10.50;1.00
4308;DHT22;2167;53.448;9.984;2024-02-21T15:12:25;10.60;1.00
4308;DHT22;2167;53.448;9.984;2024-02-21T15:14:51;10.50;1.00
4308;DHT22;2167;53.448;9.984;2024-02-21T15:17:17;10.50;1.00
4308;DHT22;2167;53.448;9.984;2024-02-21T15:19:43;10.50;1.00
4308;DHT22;2167;53.448;9.984;2024-02-21T15:22:10;10.50;1.00
4308;DHT22;2167;53.448;9.984;2024-02-21T15:24:38;10.50;1.00
4308;DHT22;2167;53.448;9.984;2024-02-21T15:27:04;10.50;1.00
4308;DHT22;2167;53.448;9.984;2024-02-21T15:29:29;10.50;1.00
4308;DHT22;2167;53.448;9.984;2024-02-21T15:31:55;10.50;1.00
4308;DHT22;2167;53.448;9.984;2024-02-21T15:34:21;10.50;1.00
4308;DHT22;2167;53.448;9.984;2024-02-21T15:36:47;10.50;1.00
4308;DHT22;2167;53.448;9.984;2024-02-21T15:39:12;10.50;1.00
4308;DHT22;2167;53.448;9.984;2024-02-21T15:41:38;10.50;1.00
4308;DHT22;2167;53.448;9.984;2024-02-21T15:44:03;10.40;1.00
4308;DHT22;2167;53.448;9.984;2024-02-21T15:46:30;10.30;1.00
4308;DHT22;2167;53.448;9.984;2024-02-21T15:48:56;10.40;1.00
4308;DHT22;2167;53.448;9.984;2024-02-21T15:51:22;10.40;1.00
4308;DHT22;2167;53.448;9.984;2024-02-21T15:53:48;10.30;1.00
4308;DHT22;2167;53.448;9.984;2024-02-21T15:56:14;10.30;1.00
4308;DHT22;2167;53.448;9.984;2024-02-21T15:58:40;10.30;1.00
4308;DHT22;2167;53.448;9.984;2024-02-21T16:01:06;10.20;1.00
4308;DHT22;2167;53.448;9.984;2024-02-21T16:03:32;10.20;1.00
4308;DHT22;2167;53.448;9.984;2024-02-21T16:05:57;10.20;1.00
4308;DHT22;2167;53.448;9.984;2024-02-21T16:08:23;10.20;1.00
4308;DHT22;2167;53.448;9.984;2024-02-21T16:10:49;10.20;1.00
4308;DHT22;2167;53.448;9.984;2024-02-21T16:13:16;10.20;1.00
4308;DHT22;2167;53.448;9.984;2024-02-21T16:15:41;10.20;1.00
4308;DHT22;2167;53.448;9.984;2024-02-21T16:18:10;10.20;1.00
4308;DHT22;2167;53.448;9.984;2024-02-21T16:20:35;10.10;1.00
4308;DHT22;2167;53.448;9.984;2024-02-21T16:23:01;10.10;1.00
4308;DHT22;2167;53.448;9.984;2024-02-21T16:25:30;10.10;1.00
4308;DHT22;2167;53.448;9.984;2024-02-21T16:27:55;10.20;1.00
4308;DHT22;2167;53.448;9.984;2024-02-21T16:30:21;10.10;1.00
4308;DHT22;2167;53.448;9.984;2024-02-21T16:32:48;10.00;1.00
4308;DHT22;2167;53.448;9.984;2024-02-21T16:35:14;10.00;1.00
4308;DHT22;2167;53.448;9.984;2024-02-21T16:37:39;10.00;1.00
4308;DHT22;2167;53.448;9.984;2024-02-21T16:40:05;10.00;1.00
4308;DHT22;2167;53.448;9.984;2024-02-21T16:42:31;10.00;1.00
4308;DHT22;2167;53.448;9.984;2024-02-21T16:44:57;9.90;1.00
4308;DHT22;2167;53.448;9.984;2024-02-21T16:47:22;9.90;1.00
4308;DHT22;2167;53.448;9.984;2024-02-21T16:49:53;9.90;1.00
4308;DHT22;2167;53.448;9.984;2024-02-21T16:52:18;9.90;1.00
4308;DHT22;2167;53.448;9.984;2024-02-21T16:54:44;9.90;1.00
4308;DHT22;2167;53.448;9.984;2024-02-21T16:57:09;9.90;1.00
4308;DHT22;2167;53.448;9.984;2024-02-21T16:59:35;9.90;1.00
4308;DHT22;2167;53.448;9.984;2024-02-21T17:02:02;9.90;1.00
4308;DHT22;2167;53.448;9.984;2024-02-21T17:04:29;10.00;1.00
4308;DHT22;2167;53.448;9.984;2024-02-21T17:06:54;9.90;1.00
4308;DHT22;2167;53.448;9.984;2024-02-21T17:09:20;9.90;1.00
4308;DHT22;2167;53.448;9.984;2024-02-21T17:11:45;9.90;1.00
4308;DHT22;2167;53.448;9.984;2024-02-21T17:14:11;9.90;1.00
4308;DHT22;2167;53.448;9.984;2024-02-21T17:16:38;9.90;1.00
4308;DHT22;2167;53.448;9.984;2024-02-21T17:19:03;9.80;1.00
4308;DHT22;2167;53.448;9.984;2024-02-21T17:21:31;9.90;1.00
4308;DHT22;2167;53.448;9.984;2024-02-21T17:23:57;9.80;1.00
4308;DHT22;2167;53.448;9.984;2024-02-21T17:26:22;9.80;1.00
4308;DHT22;2167;53.448;9.984;2024-02-21T17:28:52;9.90;1.00
4308;DHT22;2167;53.448;9.984;2024-02-21T17:31:18;9.90;1.00
4308;DHT22;2167;53.448;9.984;2024-02-21T17:33:44;9.80;1.00
4308;DHT22;2167;53.448;9.984;2024-02-21T17:36:11;9.80;1.00
4308;DHT22;2167;53.448;9.984;2024-02-21T17:38:36;9.80;1.00
4308;DHT22;2167;53.448;9.984;2024-02-21T17:41:34;9.80;1.00
4308;DHT22;2167;53.448;9.984;2024-02-21T17:44:00;9.70;1.00
4308;DHT22;2167;53.448;9.984;2024-02-21T17:46:35;9.70;1.00
4308;DHT22;2167;53.448;9.984;2024-02-21T17:52:50;9.70;1.00
4308;DHT22;2167;53.448;9.984;2024-02-21T17:55:24;9.60;1.00
4308;DHT22;2167;53.448;9.984;2024-02-21T17:57:50;9.70;1.00
4308;DHT22;2167;53.448;9.984;2024-02-21T18:00:15;9.70;1.00
4308;DHT22;2167;53.448;9.984;2024-02-21T18:02:41;9.60;1.00
4308;DHT22;2167;53.448;9.984;2024-02-21T18:05:07;9.70;1.00
4308;DHT22;2167;53.448;9.984;2024-02-21T18:07:33;9.70;1.00
4308;DHT22;2167;53.448;9.984;2024-02-21T18:09:58;9.70;1.00
4308;DHT22;2167;53.448;9.984;2024-02-21T18:12:24;9.70;1.00
4308;DHT22;2167;53.448;9.984;2024-02-21T18:14:50;9.70;1.00
4308;DHT22;2167;53.448;9.984;2024-02-21T18:17:15;9.70;1.00
4308;DHT22;2167;53.448;9.984;2024-02-21T18:19:41;9.70;1.00
4308;DHT22;2167;53.448;9.984;2024-02-21T18:22:06;9.70;1.00
4308;DHT22;2167;53.448;9.984;2024-02-21T18:24:33;9.60;1.00
4308;DHT22;2167;53.448;9.984;2024-02-21T18:26:59;9.60;1.00
4308;DHT22;2167;53.448;9.984;2024-02-21T18:29:38;9.60;1.00
4308;DHT22;2167;53.448;9.984;2024-02-21T18:32:23;9.60;1.00
4308;DHT22;2167;53.448;9.984;2024-02-21T18:35:39;9.50;1.00
4308;DHT22;2167;53.448;9.984;2024-02-21T18:38:26;9.40;1.00
4308;DHT22;2167;53.448;9.984;2024-02-21T18:44:55;9.30;1.00
4308;DHT22;2167;53.448;9.984;2024-02-21T18:55:30;9.20;1.00
4308;DHT22;2167;53.448;9.984;2024-02-21T19:01:42;9.20;1.00
4308;DHT22;2167;53.448;9.984;2024-02-21T19:17:58;9.20;1.00
4308;DHT22;2167;53.448;9.984;2024-02-21T19:21:06;9.20;1.00
4308;DHT22;2167;53.448;9.984;2024-02-21T19:23:42;9.20;1.00
4308;DHT22;2167;53.448;9.984;2024-02-21T19:26:10;9.20;1.00